Time;durP1;ratioP1;P1;durP2;ratioP2;P2;SDS_P1;SDS_P2;PMS_P1;PMS_P2;Temp;Humidity;BMP_temperature;BMP_pressure;BME280_temperature;BME280_humidity;BME280_pressure;Samples;Min_cycle;Max_cycle;Signal;HPM_P1;HPM_P2
2023/11/08 00:01:59;;;;;;;;;;;;;;;-144.99;100.00;52564.28;5082634;28;20090;-63
2023/11/08 00:04:25;;;;;;;;;;;;;;;-144.99;100.00;52570.38;5079180;28;20410;-63
2023/11/08 00:06:52;;;;;;;;;;;;;;;-144.99;100.00;52554.09;5085007;28;19939;-63
2023/11/08 00:09:19;;;;;;;;;;;;;;;-144.99;100.00;52521.47;5095921;28;19932;-63
2023/11/08 00:11:45;;;;;;;;;;;;;;;-144.99;100.00;52550.00;5074501;28;20433;-64
2023/11/08 00:14:12;;;;;;;;;;;;;;;-144.99;100.00;52554.09;5083435;28;19928;-65
2023/11/08 00:16:38;;;;;;;;;;;;;;;-144.99;100.00;52521.47;5088155;28;21276;-64
2023/11/08 00:19:07;;;;;;;;;;;;;;;-144.99;100.00;52578.53;5084724;28;19971;-65
2023/11/08 00:21:34;;;;;;;;;;;;;;;-144.99;100.00;52550.00;5082115;28;20124;-65
2023/11/08 00:24:02;;;;;;;;;;;;;;;-144.99;100.00;52550.00;5094316;28;20011;-65
2023/11/08 00:26:28;;;;;;;;;;;;;;;-144.99;100.00;52517.41;5090723;28;19990;-65
2023/11/08 00:28:55;;;;;;;;;;;;;;;-144.99;100.00;52558.16;5096815;28;19955;-63
2023/11/08 00:31:21;;;;;;;;;;;;;;;-144.99;100.00;52537.78;5087322;28;20382;-63
2023/11/08 00:33:48;;;;;;;;;;;;;;;-144.99;100.00;52550.00;5078162;28;19928;-64
2023/11/08 00:36:15;;;;;;;;;;;;;;;-144.99;100.00;52566.31;5089042;28;20026;-63
2023/11/08 00:38:42;;;;;;;;;;;;;;;-144.99;100.00;52566.31;5091447;28;20027;-64
2023/11/08 00:41:08;;;;;;;;;;;;;;;-144.99;100.00;52574.47;5088055;28;19930;-63
2023/11/08 00:43:35;;;;;;;;;;;;;;;-144.99;100.00;52568.34;5089416;28;20334;-62
2023/11/08 00:46:02;;;;;;;;;;;;;;;-144.99;100.00;52545.94;5096780;28;19924;-62
2023/11/08 00:48:28;;;;;;;;;;;;;;;-144.99;100.00;52574.47;5090214;28;19950;-65
2023/11/08 00:50:55;;;;;;;;;;;;;;;-144.99;100.00;52558.16;5087499;28;20046;-67
2023/11/08 00:53:23;;;;;;;;;;;;;;;-144.99;100.00;52531.66;5095391;28;19963;-65
2023/11/08 00:55:49;;;;;;;;;;;;;;;-144.99;100.00;52541.84;5081880;28;20362;-66
2023/11/08 00:58:16;;;;;;;;;;;;;;;-144.99;100.00;52570.38;5091754;28;20424;-65
2023/11/08 01:00:43;;;;;;;;;;;;;;;-144.99;100.00;52566.31;5089335;28;19935;-65
2023/11/08 01:03:09;;;;;;;;;;;;;;;-144.99;100.00;52550.00;5082809;28;19951;-65
2023/11/08 01:05:35;;;;;;;;;;;;;;;-144.99;100.00;52564.28;5076215;28;19924;-65
2023/11/08 01:08:02;;;;;;;;;;;;;;;-144.99;100.00;52572.44;5088369;28;20019;-63
2023/11/08 01:10:30;;;;;;;;;;;;;;;-144.99;100.00;52476.63;5094343;28;20408;-62
2023/11/08 01:12:56;;;;;;;;;;;;;;;-144.99;100.00;52564.28;5086379;28;19982;-63
2023/11/08 01:15:23;;;;;;;;;;;;;;;-144.99;100.00;52550.00;5092837;28;20026;-63
2023/11/08 01:17:50;;;;;;;;;;;;;;;-144.99;100.00;52566.31;5082804;28;20396;-63
2023/11/08 01:20:17;;;;;;;;;;;;;;;-144.99;100.00;52541.84;5084363;28;20343;-62
2023/11/08 01:22:43;;;;;;;;;;;;;;;-144.99;100.00;52509.25;5091903;28;19996;-62
2023/11/08 01:25:12;;;;;;;;;;;;;;;-144.99;100.00;52574.47;5087059;28;20027;-62
2023/11/08 01:27:40;;;;;;;;;;;;;;;-144.99;100.00;52517.41;5087697;28;19932;-63
2023/11/08 01:30:08;;;;;;;;;;;;;;;-144.99;100.00;52541.84;5087643;28;19924;-64
2023/11/08 01:32:34;;;;;;;;;;;;;;;-144.99;100.00;52537.78;5097169;28;20476;-63
2023/11/08 01:35:02;;;;;;;;;;;;;;;-144.99;100.00;52550.00;5086910;28;20034;-62
2023/11/08 01:37:29;;;;;;;;;;;;;;;-144.99;100.00;52545.94;5087609;28;19924;-63
2023/11/08 01:39:55;;;;;;;;;;;;;;;-144.99;100.00;52550.00;5094034;28;19947;-63
2023/11/08 01:42:22;;;;;;;;;;;;;;;-144.99;100.00;52572.44;5092931;28;20340;-63
2023/11/08 01:44:50;;;;;;;;;;;;;;;-144.99;100.00;52566.31;5081809;28;20046;-63
2023/11/08 01:47:17;;;;;;;;;;;;;;;-144.99;100.00;52578.53;5090561;28;19924;-63
2023/11/08 01:49:44;;;;;;;;;;;;;;;-144.99;100.00;52517.41;5087553;28;19977;-63
2023/11/08 01:52:11;;;;;;;;;;;;;;;-144.99;100.00;52547.97;5087817;28;19925;-68
2023/11/08 01:54:39;;;;;;;;;;;;;;;-144.99;100.00;52525.56;5084307;28;20398;-67
2023/11/08 01:57:06;;;;;;;;;;;;;;;-144.99;100.00;52541.84;5078935;28;20406;-66
2023/11/08 01:59:33;;;;;;;;;;;;;;;-144.99;100.00;52562.25;5091872;28;20022;-65
2023/11/08 02:02:01;;;;;;;;;;;;;;;-144.99;100.00;52552.03;5087369;28;20004;-65
2023/11/08 02:04:28;;;;;;;;;;;;;;;-144.99;100.00;52505.16;5087189;28;19932;-65
2023/11/08 02:06:55;;;;;;;;;;;;;;;-144.99;100.00;52539.81;5084762;28;20165;-67
2023/11/08 02:09:21;;;;;;;;;;;;;;;-144.99;100.00;52545.94;5084344;28;20386;-67
2023/11/08 02:11:48;;;;;;;;;;;;;;;-144.99;100.00;52568.34;5089558;28;19928;-67
2023/11/08 02:14:14;;;;;;;;;;;;;;;-144.99;100.00;52527.59;5076324;28;20007;-67
2023/11/08 02:16:41;;;;;;;;;;;;;;;-144.99;100.00;52529.63;5082726;28;20031;-64
2023/11/08 02:19:09;;;;;;;;;;;;;;;-144.99;100.00;52505.16;5084676;28;19951;-65
2023/11/08 02:21:36;;;;;;;;;;;;;;;-144.99;100.00;52550.00;5087129;28;20003;-65
2023/11/08 02:24:20;;;;;;;;;;;;;;;-144.99;100.00;52509.25;5060841;28;19924;-65
2023/11/08 02:26:48;;;;;;;;;;;;;;;-144.99;100.00;52564.28;5087552;28;19935;-66
2023/11/08 02:29:15;;;;;;;;;;;;;;;-144.99;100.00;52603.00;5080725;28;19928;-66
2023/11/08 02:31:42;;;;;;;;;;;;;;;-144.99;100.00;52513.31;5093626;28;20273;-66
2023/11/08 02:34:09;;;;;;;;;;;;;;;-144.99;100.00;52564.28;5091381;28;19956;-66
2023/11/08 02:36:36;;;;;;;;;;;;;;;-144.99;100.00;52533.69;5095797;28;19928;-66
2023/11/08 02:39:03;;;;;;;;;;;;;;;-144.99;100.00;52545.94;5083592;28;19940;-68
2023/11/08 02:41:29;;;;;;;;;;;;;;;-144.99;100.00;52545.94;5087938;28;19928;-68
2023/11/08 02:43:57;;;;;;;;;;;;;;;-144.99;100.00;52513.31;5097308;28;19924;-68
2023/11/08 02:46:23;;;;;;;;;;;;;;;-144.99;100.00;52556.13;5091361;28;19927;-62
2023/11/08 02:48:56;;;;;;;;;;;;;;;-144.99;100.00;52556.13;5082547;28;20017;-63
2023/11/08 02:51:23;;;;;;;;;;;;;;;-144.99;100.00;52509.25;5091211;28;19930;-64
2023/11/08 02:53:49;;;;;;;;;;;;;;;-144.99;100.00;52554.09;5091870;28;19989;-63
2023/11/08 02:56:16;;;;;;;;;;;;;;;-144.99;100.00;52533.69;5094583;28;20008;-63
2023/11/08 02:58:42;;;;;;;;;;;;;;;-144.99;100.00;52545.94;5090217;28;20452;-65
2023/11/08 03:01:10;;;;;;;;;;;;;;;-144.99;100.00;52525.56;5083907;28;20001;-64
2023/11/08 03:03:37;;;;;;;;;;;;;;;-144.99;100.00;52545.94;5087954;28;19980;-64
2023/11/08 03:06:04;;;;;;;;;;;;;;;-144.99;100.00;52562.25;5089133;28;19925;-64
2023/11/08 03:08:30;;;;;;;;;;;;;;;-144.99;100.00;52554.09;5095330;28;20031;-64
2023/11/08 03:10:57;;;;;;;;;;;;;;;-144.99;100.00;52545.94;5099965;28;19932;-70
2023/11/08 03:13:25;;;;;;;;;;;;;;;-144.99;100.00;52521.47;5087320;28;19956;-71
2023/11/08 03:15:52;;;;;;;;;;;;;;;-144.99;100.00;52543.91;5090141;28;19971;-68
2023/11/08 03:18:21;;;;;;;;;;;;;;;-144.99;100.00;52529.63;5097907;28;20382;-71
2023/11/08 03:20:47;;;;;;;;;;;;;;;-144.99;100.00;52547.97;5086512;28;20019;-71
2023/11/08 03:23:14;;;;;;;;;;;;;;;-144.99;100.00;52541.84;5084141;28;19972;-70
2023/11/08 03:25:40;;;;;;;;;;;;;;;-144.99;100.00;52564.28;5088614;28;19971;-70
2023/11/08 03:28:07;;;;;;;;;;;;;;;-144.99;100.00;52541.84;5090493;28;19969;-71
2023/11/08 03:30:33;;;;;;;;;;;;;;;-144.99;100.00;52537.78;5081907;28;20019;-69
2023/11/08 03:33:00;;;;;;;;;;;;;;;-144.99;100.00;52541.84;5116122;22;20359;-67
2023/11/08 03:35:29;;;;;;;;;;;;;;;-144.99;100.00;52554.09;5090207;28;19990;-67
2023/11/08 03:37:55;;;;;;;;;;;;;;;-144.99;100.00;52545.94;5084767;28;20439;-67
2023/11/08 03:40:22;;;;;;;;;;;;;;;-144.99;100.00;52541.84;5090774;28;19928;-64
2023/11/08 03:42:49;;;;;;;;;;;;;;;-144.99;100.00;52566.31;5087684;28;20019;-63
2023/11/08 03:45:15;;;;;;;;;;;;;;;-144.99;100.00;52574.47;5087980;28;20350;-67
2023/11/08 03:47:42;;;;;;;;;;;;;;;-144.99;100.00;52533.69;5086265;28;20381;-67
2023/11/08 03:50:08;;;;;;;;;;;;;;;-144.99;100.00;52533.69;5090295;28;20448;-67
2023/11/08 03:52:36;;;;;;;;;;;;;;;-144.99;100.00;52556.13;5089881;28;19928;-67
2023/11/08 03:55:03;;;;;;;;;;;;;;;-144.99;100.00;52562.25;5089839;28;19973;-67
2023/11/08 03:57:30;;;;;;;;;;;;;;;-144.99;100.00;52545.94;5089199;28;19959;-67
2023/11/08 03:59:56;;;;;;;;;;;;;;;-144.99;100.00;52566.31;5086740;28;19985;-68
2023/11/08 04:02:23;;;;;;;;;;;;;;;-144.99;100.00;52533.69;5089996;28;20414;-64
2023/11/08 04:04:49;;;;;;;;;;;;;;;-144.99;100.00;52554.09;5087331;28;19936;-64
2023/11/08 04:07:16;;;;;;;;;;;;;;;-144.99;100.00;52543.91;5087057;28;20381;-64
2023/11/08 04:09:44;;;;;;;;;;;;;;;-144.99;100.00;52521.47;5088419;28;19928;-65
2023/11/08 04:12:10;;;;;;;;;;;;;;;-144.99;100.00;52550.00;5086598;28;19959;-65
2023/11/08 04:14:37;;;;;;;;;;;;;;;-144.99;100.00;52550.00;5093418;28;20046;-65
2023/11/08 04:17:04;;;;;;;;;;;;;;;-144.99;100.00;52541.84;5088144;28;20018;-69
2023/11/08 04:19:31;;;;;;;;;;;;;;;-144.99;100.00;52537.78;5088669;28;19924;-71
2023/11/08 04:21:58;;;;;;;;;;;;;;;-144.99;100.00;52545.94;5089699;28;19951;-68
2023/11/08 04:24:24;;;;;;;;;;;;;;;-144.99;100.00;52550.00;5088982;28;20031;-70
2023/11/08 04:26:53;;;;;;;;;;;;;;;-144.99;100.00;52582.63;5077811;28;20382;-64
2023/11/08 04:29:19;;;;;;;;;;;;;;;-144.99;100.00;52566.31;5087307;28;19972;-65
2023/11/08 04:31:45;;;;;;;;;;;;;;;-144.99;100.00;52547.97;5088582;28;20015;-66
2023/11/08 04:34:12;;;;;;;;;;;;;;;-144.99;100.00;52545.94;5089660;28;19967;-65
2023/11/08 04:36:39;;;;;;;;;;;;;;;-144.99;100.00;52533.69;5086252;28;19928;-64
2023/11/08 04:39:07;;;;;;;;;;;;;;;-144.99;100.00;52562.25;5083971;28;19928;-64
2023/11/08 04:41:34;;;;;;;;;;;;;;;-144.99;100.00;52558.16;5088614;28;19924;-64
2023/11/08 04:44:01;;;;;;;;;;;;;;;-144.99;100.00;52615.25;5089421;28;19967;-64
2023/11/08 04:46:28;;;;;;;;;;;;;;;-144.99;100.00;52550.00;5087853;28;20386;-64
2023/11/08 04:48:54;;;;;;;;;;;;;;;-144.99;100.00;52574.47;5081952;28;20068;-65
2023/11/08 04:51:21;;;;;;;;;;;;;;;-144.99;100.00;52539.81;5081969;28;19985;-65
2023/11/08 04:53:48;;;;;;;;;;;;;;;-144.99;100.00;52552.03;5082296;28;19928;-65
2023/11/08 04:56:14;;;;;;;;;;;;;;;-144.99;100.00;52582.63;5083344;28;19947;-67
2023/11/08 04:58:40;;;;;;;;;;;;;;;-144.99;100.00;52545.94;5087701;28;19927;-67
2023/11/08 05:01:09;;;;;;;;;;;;;;;-144.99;100.00;52525.56;5085988;28;20335;-68
2023/11/08 05:03:35;;;;;;;;;;;;;;;-144.99;100.00;52527.59;5089183;28;19958;-68
2023/11/08 05:06:02;;;;;;;;;;;;;;;-144.99;100.00;52537.78;5083407;28;19946;-68
2023/11/08 05:08:29;;;;;;;;;;;;;;;-144.99;100.00;52562.25;5082935;28;19924;-66
2023/11/08 05:10:55;;;;;;;;;;;;;;;-144.99;100.00;52529.63;5085610;28;19954;-66
2023/11/08 05:13:24;;;;;;;;;;;;;;;-144.99;100.00;52545.94;5088153;28;20021;-67
2023/11/08 05:15:50;;;;;;;;;;;;;;;-144.99;100.00;52543.91;5086455;28;19955;-67
2023/11/08 05:18:18;;;;;;;;;;;;;;;-144.99;100.00;52525.56;5084238;28;20008;-66
2023/11/08 05:20:44;;;;;;;;;;;;;;;-144.99;100.00;52566.31;5087181;28;20428;-66
2023/11/08 05:23:11;;;;;;;;;;;;;;;-144.99;100.00;52541.84;5086264;28;19960;-66
2023/11/08 05:25:39;;;;;;;;;;;;;;;-144.99;100.00;52574.47;5084842;28;20018;-67
2023/11/08 05:28:05;;;;;;;;;;;;;;;-144.99;100.00;52550.00;5088633;28;20013;-72
2023/11/08 05:30:32;;;;;;;;;;;;;;;-144.99;100.00;52578.53;5082948;28;19978;-72
2023/11/08 05:32:59;;;;;;;;;;;;;;;-144.99;100.00;52552.03;5086289;28;19992;-72
2023/11/08 05:35:26;;;;;;;;;;;;;;;-144.99;100.00;52533.69;5087280;28;19955;-72
2023/11/08 05:37:53;;;;;;;;;;;;;;;-144.99;100.00;52574.47;5088210;28;20012;-72
2023/11/08 05:40:20;;;;;;;;;;;;;;;-144.99;100.00;52554.09;5085453;28;19936;-72
2023/11/08 05:42:46;;;;;;;;;;;;;;;-144.99;100.00;52541.84;5083391;28;19966;-72
2023/11/08 05:45:13;;;;;;;;;;;;;;;-144.99;100.00;52570.38;5080257;28;19966;-72
2023/11/08 05:47:39;;;;;;;;;;;;;;;-144.99;100.00;52586.69;5087284;28;20467;-72
2023/11/08 05:50:08;;;;;;;;;;;;;;;-144.99;100.00;52529.63;5086743;28;19972;-72
2023/11/08 05:52:36;;;;;;;;;;;;;;;-144.99;100.00;52554.09;5087833;28;20431;-72
2023/11/08 05:55:02;;;;;;;;;;;;;;;-144.99;100.00;52558.16;5083111;28;20436;-72
2023/11/08 05:57:29;;;;;;;;;;;;;;;-144.99;100.00;52550.00;5079887;28;19978;-61
2023/11/08 05:59:55;;;;;;;;;;;;;;;-144.99;100.00;52550.00;5082325;28;20395;-72
2023/11/08 06:02:22;;;;;;;;;;;;;;;-144.99;100.00;52525.56;5085592;28;19932;-63
2023/11/08 06:04:49;;;;;;;;;;;;;;;-144.99;100.00;52521.47;5081906;28;19977;-65
2023/11/08 06:07:16;;;;;;;;;;;;;;;-144.99;100.00;52513.31;5087559;28;20359;-65
2023/11/08 06:09:44;;;;;;;;;;;;;;;-144.99;100.00;52586.69;5087031;28;19931;-65
2023/11/08 06:12:11;;;;;;;;;;;;;;;-144.99;100.00;52533.69;5089154;28;19924;-66
2023/11/08 06:14:37;;;;;;;;;;;;;;;-144.99;100.00;52517.41;5087434;28;19990;-66
2023/11/08 06:17:04;;;;;;;;;;;;;;;-144.99;100.00;52533.69;5087433;28;19928;-68
2023/11/08 06:19:30;;;;;;;;;;;;;;;-144.99;100.00;52554.09;4383645;28;10000868;-68
2023/11/08 06:21:57;;;;;;;;;;;;;;;-144.99;100.00;52562.25;5078033;28;20390;-69
2023/11/08 06:24:23;;;;;;;;;;;;;;;-144.99;100.00;52537.78;5082369;28;19972;-68
2023/11/08 06:26:51;;;;;;;;;;;;;;;-144.99;100.00;52550.00;5085088;28;20411;-68
2023/11/08 06:29:18;;;;;;;;;;;;;;;-144.99;100.00;52545.94;5087740;28;20348;-68
2023/11/08 06:31:44;;;;;;;;;;;;;;;-144.99;100.00;52556.13;5079994;28;20015;-68
2023/11/08 06:34:12;;;;;;;;;;;;;;;-144.99;100.00;52554.09;5084437;28;19928;-68
2023/11/08 06:36:39;;;;;;;;;;;;;;;-144.99;100.00;52566.31;5083405;28;19932;-67
2023/11/08 06:39:05;;;;;;;;;;;;;;;-144.99;100.00;52550.00;5086270;28;19928;-68
2023/11/08 06:41:32;;;;;;;;;;;;;;;-144.99;100.00;52554.09;5086951;28;19982;-67
2023/11/08 06:44:00;;;;;;;;;;;;;;;-144.99;100.00;52507.19;5086932;28;19928;-67
2023/11/08 06:46:26;;;;;;;;;;;;;;;-144.99;100.00;52550.00;5086970;28;19935;-67
2023/11/08 06:48:54;;;;;;;;;;;;;;;-144.99;100.00;52529.63;5087545;28;19928;-68
2023/11/08 06:51:22;;;;;;;;;;;;;;;-144.99;100.00;52562.25;5087849;28;19975;-68
2023/11/08 06:53:48;;;;;;;;;;;;;;;-144.99;100.00;52547.97;5088073;28;19936;-68
2023/11/08 06:56:15;;;;;;;;;;;;;;;-144.99;100.00;52529.63;5079231;28;19955;-68
2023/11/08 06:58:41;;;;;;;;;;;;;;;-144.99;100.00;52533.69;5086419;28;19928;-68
2023/11/08 07:01:10;;;;;;;;;;;;;;;-144.99;100.00;52554.09;5089127;28;19989;-68
2023/11/08 07:03:36;;;;;;;;;;;;;;;-144.99;100.00;52545.94;5087842;28;19928;-68
2023/11/08 07:06:04;;;;;;;;;;;;;;;-144.99;100.00;52554.09;5086564;28;20019;-68
2023/11/08 07:08:31;;;;;;;;;;;;;;;-144.99;100.00;52550.00;5087763;28;19932;-67
2023/11/08 07:10:58;;;;;;;;;;;;;;;-144.99;100.00;52566.31;5088466;28;19951;-68
2023/11/08 07:13:25;;;;;;;;;;;;;;;-144.99;100.00;52545.94;5088273;28;20022;-68
2023/11/08 07:15:51;;;;;;;;;;;;;;;-144.99;100.00;52525.56;5086905;28;19935;-68
2023/11/08 07:18:19;;;;;;;;;;;;;;;-144.99;100.00;52531.66;5082602;28;20012;-68
2023/11/08 07:20:46;;;;;;;;;;;;;;;-144.99;100.00;52501.09;5087182;28;19924;-68
2023/11/08 07:23:12;;;;;;;;;;;;;;;-144.99;100.00;52582.63;5088185;28;19982;-68
2023/11/08 07:25:39;;;;;;;;;;;;;;;-144.99;100.00;52529.63;5087979;28;20319;-68
2023/11/08 07:28:07;;;;;;;;;;;;;;;-144.99;100.00;52537.78;5078951;28;20011;-68
2023/11/08 07:30:34;;;;;;;;;;;;;;;-144.99;100.00;52576.50;5084567;28;19932;-68
2023/11/08 07:33:01;;;;;;;;;;;;;;;-144.99;100.00;52566.31;5078865;28;19936;-67
2023/11/08 07:35:29;;;;;;;;;;;;;;;-144.99;100.00;52550.00;5084247;28;19928;-68
2023/11/08 07:37:55;;;;;;;;;;;;;;;-144.99;100.00;52529.63;5083544;28;19936;-67
2023/11/08 07:40:21;;;;;;;;;;;;;;;-144.99;100.00;52545.94;5084436;28;19968;-68
2023/11/08 07:42:48;;;;;;;;;;;;;;;-144.99;100.00;52550.00;5088120;28;20186;-67
2023/11/08 07:45:14;;;;;;;;;;;;;;;-144.99;100.00;52501.09;5083811;28;20015;-67
2023/11/08 07:47:41;;;;;;;;;;;;;;;-144.99;100.00;52554.09;5086701;28;19931;-68
2023/11/08 07:50:08;;;;;;;;;;;;;;;-144.99;100.00;52499.06;5083298;28;19954;-68
2023/11/08 07:52:36;;;;;;;;;;;;;;;-144.99;100.00;52509.25;5085761;28;19977;-68
2023/11/08 07:55:05;;;;;;;;;;;;;;;-144.99;100.00;52539.81;5087386;28;20003;-68
2023/11/08 07:57:31;;;;;;;;;;;;;;;-144.99;100.00;52545.94;4734930;28;9999911;-67
2023/11/08 07:59:58;;;;;;;;;;;;;;;-144.99;100.00;52539.81;5084299;28;20065;-67
2023/11/08 08:02:24;;;;;;;;;;;;;;;-144.99;100.00;52574.47;5086248;28;19928;-67
2023/11/08 08:04:51;;;;;;;;;;;;;;;-144.99;100.00;52537.78;5083547;28;19935;-66
2023/11/08 08:07:17;;;;;;;;;;;;;;;-144.99;100.00;52517.41;5087596;28;19989;-67
2023/11/08 08:09:45;;;;;;;;;;;;;;;-144.99;100.00;52550.00;5085035;28;19989;-68
2023/11/08 08:12:12;;;;;;;;;;;;;;;-144.99;100.00;52552.03;5086953;28;19934;-69
2023/11/08 08:14:39;;;;;;;;;;;;;;;-144.99;100.00;52550.00;5081113;28;19924;-67
2023/11/08 08:17:06;;;;;;;;;;;;;;;-144.99;100.00;52497.00;5083001;28;20011;-67
2023/11/08 08:19:32;;;;;;;;;;;;;;;-144.99;100.00;52472.56;5084976;28;19940;-67
2023/11/08 08:22:01;;;;;;;;;;;;;;;-144.99;100.00;52499.06;5085791;28;19928;-68
2023/11/08 08:24:27;;;;;;;;;;;;;;;-144.99;100.00;52562.25;5085669;28;19998;-67
2023/11/08 08:26:55;;;;;;;;;;;;;;;-144.99;100.00;52503.13;5084967;28;20048;-67
2023/11/08 08:29:24;;;;;;;;;;;;;;;-144.99;100.00;52517.41;5087083;28;19932;-68
2023/11/08 08:31:50;;;;;;;;;;;;;;;-144.99;100.00;52499.06;5078930;28;20460;-68
2023/11/08 08:34:17;;;;;;;;;;;;;;;-144.99;100.00;52517.41;5084620;28;19951;-68
2023/11/08 08:36:43;;;;;;;;;;;;;;;-144.99;100.00;52509.25;5085118;28;19938;-67
2023/11/08 08:39:10;;;;;;;;;;;;;;;-144.99;100.00;52568.34;5086524;28;20429;-67
2023/11/08 08:41:37;;;;;;;;;;;;;;;-144.99;100.00;52550.00;5083403;28;19934;-68
2023/11/08 08:44:05;;;;;;;;;;;;;;;-144.99;100.00;52492.94;5089960;28;19969;-68
2023/11/08 08:46:32;;;;;;;;;;;;;;;-144.99;100.00;52517.41;5085120;28;20058;-68
2023/11/08 08:48:58;;;;;;;;;;;;;;;-144.99;100.00;52541.84;5079591;28;20337;-67
2023/11/08 08:51:25;;;;;;;;;;;;;;;-144.99;100.00;52525.56;5079295;28;19998;-67
2023/11/08 08:53:52;;;;;;;;;;;;;;;-144.99;100.00;52539.81;5086510;28;20069;-67
2023/11/08 08:56:18;;;;;;;;;;;;;;;-144.99;100.00;52505.16;5081480;28;19967;-68
2023/11/08 08:58:46;;;;;;;;;;;;;;;-144.99;100.00;52570.38;5087992;28;20400;-68
2023/11/08 09:01:18;;;;;;;;;;;;;;;-144.99;100.00;52497.00;5089259;28;19931;-67
2023/11/08 09:03:45;;;;;;;;;;;;;;;-144.99;100.00;52494.97;5079577;28;19954;-68
2023/11/08 09:06:12;;;;;;;;;;;;;;;-144.99;100.00;52537.78;5081766;28;19928;-68
2023/11/08 09:08:39;;;;;;;;;;;;;;;-144.99;100.00;52562.25;5082536;28;20010;-67
2023/11/08 09:11:06;;;;;;;;;;;;;;;-144.99;100.00;52509.25;5086968;28;20051;-67
2023/11/08 09:13:32;;;;;;;;;;;;;;;-144.99;100.00;52529.63;5081215;28;20090;-67
2023/11/08 09:16:01;;;;;;;;;;;;;;;-144.99;100.00;52558.16;5083883;28;19954;-67
2023/11/08 09:18:29;;;;;;;;;;;;;;;-144.99;100.00;52554.09;5082754;28;19940;-67
2023/11/08 09:20:56;;;;;;;;;;;;;;;-144.99;100.00;52509.25;5084945;28;20019;-67
2023/11/08 09:23:23;;;;;;;;;;;;;;;-144.99;100.00;52505.16;5084064;28;20011;-67
2023/11/08 09:25:50;;;;;;;;;;;;;;;-144.99;100.00;52541.84;5083656;28;19928;-67
2023/11/08 09:28:16;;;;;;;;;;;;;;;-144.99;100.00;52497.00;5087473;28;19932;-67
2023/11/08 09:30:43;;;;;;;;;;;;;;;-144.99;100.00;52509.25;5083753;28;20163;-67
2023/11/08 09:33:10;;;;;;;;;;;;;;;-144.99;100.00;52554.09;5089926;28;19972;-67
2023/11/08 09:35:37;;;;;;;;;;;;;;;-144.99;100.00;52529.63;5083084;28;19928;-67
2023/11/08 09:38:04;;;;;;;;;;;;;;;-144.99;100.00;52529.63;5089132;28;20428;-68
2023/11/08 09:40:31;;;;;;;;;;;;;;;-144.99;100.00;52513.31;5076965;28;20352;-67
2023/11/08 09:42:58;;;;;;;;;;;;;;;-144.99;100.00;52521.47;5083103;28;20053;-67
2023/11/08 09:45:30;;;;;;;;;;;;;;;-144.99;100.00;52509.25;5082277;28;20432;-67
2023/11/08 09:47:57;;;;;;;;;;;;;;;-144.99;100.00;52525.56;5088998;28;19924;-67
2023/11/08 09:50:23;;;;;;;;;;;;;;;-144.99;100.00;52527.59;5092388;28;19928;-67
2023/11/08 09:52:52;;;;;;;;;;;;;;;-144.99;100.00;52521.47;5092549;28;19928;-67
2023/11/08 09:55:18;;;;;;;;;;;;;;;-144.99;100.00;52517.41;5084313;28;20000;-67
2023/11/08 09:57:45;;;;;;;;;;;;;;;-144.99;100.00;52541.84;5086039;28;19981;-68
2023/11/08 10:00:12;;;;;;;;;;;;;;;-144.99;100.00;52505.16;5090020;28;19928;-67
2023/11/08 10:02:40;;;;;;;;;;;;;;;-144.99;100.00;52566.31;5091942;28;19928;-67
2023/11/08 10:05:06;;;;;;;;;;;;;;;-144.99;100.00;52527.59;5085646;28;20061;-68
2023/11/08 10:07:33;;;;;;;;;;;;;;;-144.99;100.00;52562.25;5086369;28;20444;-68
2023/11/08 10:10:01;;;;;;;;;;;;;;;-144.99;100.00;52541.84;5087756;28;19924;-68
2023/11/08 10:12:27;;;;;;;;;;;;;;;-144.99;100.00;52513.31;5092120;28;19988;-67
2023/11/08 10:14:58;;;;;;;;;;;;;;;-144.99;100.00;52499.06;5090391;28;20358;-67
2023/11/08 10:17:34;;;;;;;;;;;;;;;-144.99;100.00;52517.41;5092747;28;19950;-67
2023/11/08 10:20:00;;;;;;;;;;;;;;;-144.99;100.00;52517.41;5097003;28;19932;-68
2023/11/08 10:22:27;;;;;;;;;;;;;;;-144.99;100.00;52529.63;5096134;28;20377;-67
2023/11/08 10:24:55;;;;;;;;;;;;;;;-144.99;100.00;52464.41;5095661;28;20024;-67
2023/11/08 10:27:23;;;;;;;;;;;;;;;-144.99;100.00;52476.63;5099088;28;20351;-67
2023/11/08 10:29:51;;;;;;;;;;;;;;;-144.99;100.00;52490.91;5100345;28;19928;-68
2023/11/08 10:32:19;;;;;;;;;;;;;;;-144.99;100.00;52391.03;5095674;28;20107;-68
2023/11/08 10:34:46;;;;;;;;;;;;;;;-144.99;98.32;52490.91;5095289;28;19934;-68
2023/11/08 10:37:24;;;;;;;;;;;;;;;-144.99;95.81;52472.56;5096988;28;20359;-68
2023/11/08 10:39:51;;;;;;;;;;;;;;;-144.99;95.35;52456.25;5090278;28;19950;-68
2023/11/08 10:42:17;;;;;;;;;;;;;;;-144.99;94.24;52464.41;5093600;28;19931;-68
2023/11/08 10:44:45;;;;;;;;;;;;;;;-144.99;95.01;52342.09;5096623;28;19928;-68
2023/11/08 10:47:13;;;;;;;;;;;;;;;-144.99;91.49;52382.88;5095257;28;19928;-67
2023/11/08 10:49:41;;;;;;;;;;;;;;;-144.99;90.15;52448.09;5095823;28;19928;-67
2023/11/08 10:52:10;;;;;;;;;;;;;;;-144.99;87.68;52411.41;5092697;28;19924;-68
2023/11/08 10:54:39;;;;;;;;;;;;;;;-144.99;86.35;52354.34;5095728;28;20377;-69
2023/11/08 10:57:06;;;;;;;;;;;;;;;-144.99;82.52;52362.50;5095058;28;20420;-69
2023/11/08 10:59:35;;;;;;;;;;;;;;;-144.99;80.97;52382.88;5088737;28;19977;-69
2023/11/08 11:02:12;;;;;;;;;;;;;;;-144.99;83.96;52470.50;5091394;28;19973;-69
2023/11/08 11:04:38;;;;;;;;;;;;;;;-144.99;87.16;52497.00;5089224;28;19993;-69
2023/11/08 11:07:09;;;;;;;;;;;;;;;-144.99;87.97;52415.47;5091165;28;19964;-69
2023/11/08 11:09:36;;;;;;;;;;;;;;;-144.99;88.41;52505.16;5089131;28;19981;-69
2023/11/08 11:12:08;;;;;;;;;;;;;;;-144.99;89.81;52444.03;5086297;28;19984;-69
2023/11/08 11:14:38;;;;;;;;;;;;;;;-144.99;92.33;52533.69;5092788;28;19928;-69
2023/11/08 11:17:09;;;;;;;;;;;;;;;-144.99;93.73;52521.47;5087371;28;20254;-68
2023/11/08 11:19:39;;;;;;;;;;;;;;;-144.99;94.69;52509.25;5092105;28;19970;-68
2023/11/08 11:22:07;;;;;;;;;;;;;;;-144.99;95.55;52517.41;5097349;28;19982;-67
2023/11/08 11:24:39;;;;;;;;;;;;;;;-144.99;95.74;52501.09;5099658;28;19935;-67
2023/11/08 11:27:06;;;;;;;;;;;;;;;-144.99;95.67;52492.94;5093105;28;19924;-68
2023/11/08 11:29:33;;;;;;;;;;;;;;;-144.99;95.06;52497.00;5087574;28;20412;-69
2023/11/08 11:32:04;;;;;;;;;;;;;;;-144.99;94.58;52480.72;5091989;28;19930;-68
2023/11/08 11:34:47;;;;;;;;;;;;;;;-144.99;94.95;52517.41;5089260;28;20385;-68
2023/11/08 11:37:16;;;;;;;;;;;;;;;-144.99;95.32;52492.94;5083838;28;19943;-68
2023/11/08 11:39:45;;;;;;;;;;;;;;;-144.99;95.59;52517.41;5084834;28;19928;-68
2023/11/08 11:42:16;;;;;;;;;;;;;;;-144.99;95.68;52574.47;5088408;28;19928;-68
2023/11/08 11:44:43;;;;;;;;;;;;;;;-144.99;95.99;52550.00;5087985;28;20503;-68
2023/11/08 11:47:10;;;;;;;;;;;;;;;-144.99;96.06;52519.44;5084655;28;19928;-69
2023/11/08 11:49:44;;;;;;;;;;;;;;;-144.99;95.98;52480.72;5088313;28;19966;-68
2023/11/08 11:52:13;;;;;;;;;;;;;;;-144.99;95.70;52523.50;5079829;28;20189;-67
2023/11/08 11:54:44;;;;;;;;;;;;;;;-144.99;95.30;52492.94;5085341;28;19932;-67
2023/11/08 11:57:10;;;;;;;;;;;;;;;-144.99;95.34;52505.16;5079998;28;20416;-68
2023/11/08 11:59:37;;;;;;;;;;;;;;;-144.99;95.28;52488.84;5087529;28;20396;-68
2023/11/08 12:02:03;;;;;;;;;;;;;;;-144.99;95.23;52513.31;5085991;28;19928;-69
2023/11/08 12:04:30;;;;;;;;;;;;;;;-144.99;94.92;52480.72;5085777;28;19971;-67
2023/11/08 12:06:56;;;;;;;;;;;;;;;-144.99;94.05;52470.50;5084704;28;19956;-68
2023/11/08 12:09:24;;;;;;;;;;;;;;;-144.99;93.19;52521.47;5083343;28;20413;-69
2023/11/08 12:11:51;;;;;;;;;;;;;;;-144.99;92.69;52484.78;5086839;28;19969;-67
2023/11/08 12:14:21;;;;;;;;;;;;;;;-144.99;91.80;52480.72;5085964;28;19928;-68
2023/11/08 12:16:47;;;;;;;;;;;;;;;-144.99;92.14;52488.84;5084781;28;19928;-68
2023/11/08 12:19:15;;;;;;;;;;;;;;;-144.99;92.05;52488.84;5086639;28;19928;-68